sensor_id;sensor_type;location;lat;lon;timestamp;pressure;altitude;pressure_sealevel;temperature
70123;BMP280;57489;37.404;24.920;2023-04-15T00:00:20;100011.22;;;22.19
70123;BMP280;57489;37.404;24.920;2023-04-15T00:05:21;100007.66;;;22.15
70123;BMP280;57489;37.404;24.920;2023-04-15T00:10:21;99997.66;;;22.12
70123;BMP280;57489;37.404;24.920;2023-04-15T00:15:22;100002.81;;;22.05
70123;BMP280;57489;37.404;24.920;2023-04-15T00:20:22;100004.94;;;21.99
70123;BMP280;57489;37.404;24.920;2023-04-15T00:25:22;100003.47;;;22.02
70123;BMP280;57489;37.404;24.920;2023-04-15T00:30:23;99997.13;;;21.94
70123;BMP280;57489;37.404;24.920;2023-04-15T00:35:23;99997.47;;;21.93
70123;BMP280;57489;37.404;24.920;2023-04-15T00:40:24;100015.97;;;21.86
70123;BMP280;57489;37.404;24.920;2023-04-15T00:45:25;100001.06;;;21.85
70123;BMP280;57489;37.404;24.920;2023-04-15T00:50:25;100014.75;;;21.83
70123;BMP280;57489;37.404;24.920;2023-04-15T00:55:26;100012.53;;;21.73
70123;BMP280;57489;37.404;24.920;2023-04-15T01:00:26;100012.63;;;21.76
70123;BMP280;57489;37.404;24.920;2023-04-15T01:05:27;100014.66;;;21.67
70123;BMP280;57489;37.404;24.920;2023-04-15T01:10:27;100018.41;;;21.66
70123;BMP280;57489;37.404;24.920;2023-04-15T01:15:28;100023.75;;;21.66
70123;BMP280;57489;37.404;24.920;2023-04-15T01:20:29;100022.84;;;21.62
70123;BMP280;57489;37.404;24.920;2023-04-15T01:25:33;100025.22;;;21.64
70123;BMP280;57489;37.404;24.920;2023-04-15T01:30:34;100027.44;;;21.62
70123;BMP280;57489;37.404;24.920;2023-04-15T01:35:34;100032.22;;;21.56
70123;BMP280;57489;37.404;24.920;2023-04-15T01:40:35;100032.44;;;21.63
70123;BMP280;57489;37.404;24.920;2023-04-15T01:45:35;100033.00;;;21.57
70123;BMP280;57489;37.404;24.920;2023-04-15T01:50:35;100022.66;;;21.55
70123;BMP280;57489;37.404;24.920;2023-04-15T01:55:36;100023.91;;;21.58
70123;BMP280;57489;37.404;24.920;2023-04-15T02:00:36;100031.03;;;21.54
70123;BMP280;57489;37.404;24.920;2023-04-15T02:05:37;100028.44;;;21.57
70123;BMP280;57489;37.404;24.920;2023-04-15T02:10:37;100026.44;;;21.54
70123;BMP280;57489;37.404;24.920;2023-04-15T02:15:38;100024.91;;;21.53
70123;BMP280;57489;37.404;24.920;2023-04-15T02:20:38;100024.09;;;21.53
70123;BMP280;57489;37.404;24.920;2023-04-15T02:25:39;100030.25;;;21.53
70123;BMP280;57489;37.404;24.920;2023-04-15T02:30:39;100028.44;;;21.45
70123;BMP280;57489;37.404;24.920;2023-04-15T02:35:40;100025.78;;;21.45
70123;BMP280;57489;37.404;24.920;2023-04-15T02:40:40;100019.97;;;21.43
70123;BMP280;57489;37.404;24.920;2023-04-15T02:45:41;100026.97;;;21.47
70123;BMP280;57489;37.404;24.920;2023-04-15T02:50:41;100032.91;;;21.41
70123;BMP280;57489;37.404;24.920;2023-04-15T02:55:42;100035.19;;;21.42
70123;BMP280;57489;37.404;24.920;2023-04-15T03:00:42;100018.88;;;21.44
70123;BMP280;57489;37.404;24.920;2023-04-15T03:05:43;100021.56;;;21.44
70123;BMP280;57489;37.404;24.920;2023-04-15T03:10:43;100029.56;;;21.44
70123;BMP280;57489;37.404;24.920;2023-04-15T03:15:46;100020.97;;;21.38
70123;BMP280;57489;37.404;24.920;2023-04-15T03:20:46;100019.09;;;21.39
70123;BMP280;57489;37.404;24.920;2023-04-15T03:25:47;100023.53;;;21.35
70123;BMP280;57489;37.404;24.920;2023-04-15T03:30:47;100034.56;;;21.33
70123;BMP280;57489;37.404;24.920;2023-04-15T03:35:49;100038.88;;;21.38
70123;BMP280;57489;37.404;24.920;2023-04-15T03:40:49;100036.88;;;21.35
70123;BMP280;57489;37.404;24.920;2023-04-15T03:45:50;100034.66;;;21.37
70123;BMP280;57489;37.404;24.920;2023-04-15T03:50:50;100040.00;;;21.37
70123;BMP280;57489;37.404;24.920;2023-04-15T03:55:51;100043.13;;;21.39
70123;BMP280;57489;37.404;24.920;2023-04-15T04:00:51;100044.88;;;21.35
70123;BMP280;57489;37.404;24.920;2023-04-15T04:05:52;100048.78;;;21.37
70123;BMP280;57489;37.404;24.920;2023-04-15T04:10:52;100039.09;;;21.33
70123;BMP280;57489;37.404;24.920;2023-04-15T04:15:53;100045.09;;;21.42
70123;BMP280;57489;37.404;24.920;2023-04-15T04:20:53;100050.44;;;21.42
70123;BMP280;57489;37.404;24.920;2023-04-15T04:25:54;100056.47;;;21.39
70123;BMP280;57489;37.404;24.920;2023-04-15T04:30:55;100055.56;;;21.35
70123;BMP280;57489;37.404;24.920;2023-04-15T04:35:55;100069.69;;;21.35
70123;BMP280;57489;37.404;24.920;2023-04-15T04:40:55;100094.03;;;21.34
70123;BMP280;57489;37.404;24.920;2023-04-15T04:45:56;100092.94;;;21.35
70123;BMP280;57489;37.404;24.920;2023-04-15T04:50:56;100084.13;;;21.34
70123;BMP280;57489;37.404;24.920;2023-04-15T04:55:57;100092.50;;;21.45
70123;BMP280;57489;37.404;24.920;2023-04-15T05:00:58;100106.28;;;21.35
70123;BMP280;57489;37.404;24.920;2023-04-15T05:05:58;100096.84;;;21.37
70123;BMP280;57489;37.404;24.920;2023-04-15T05:10:59;100097.59;;;21.38
70123;BMP280;57489;37.404;24.920;2023-04-15T05:15:59;100098.66;;;21.45
70123;BMP280;57489;37.404;24.920;2023-04-15T05:21:01;100106.66;;;21.45
70123;BMP280;57489;37.404;24.920;2023-04-15T05:26:01;100109.34;;;21.45
70123;BMP280;57489;37.404;24.920;2023-04-15T05:31:02;100127.78;;;21.50
70123;BMP280;57489;37.404;24.920;2023-04-15T05:36:02;100125.34;;;21.45
70123;BMP280;57489;37.404;24.920;2023-04-15T05:41:03;100113.22;;;21.48
70123;BMP280;57489;37.404;24.920;2023-04-15T05:46:04;100106.69;;;21.58
70123;BMP280;57489;37.404;24.920;2023-04-15T05:51:04;100117.22;;;21.66
70123;BMP280;57489;37.404;24.920;2023-04-15T05:56:05;100128.47;;;21.72
70123;BMP280;57489;37.404;24.920;2023-04-15T06:01:05;100105.69;;;21.74
70123;BMP280;57489;37.404;24.920;2023-04-15T06:06:06;100109.59;;;21.77
70123;BMP280;57489;37.404;24.920;2023-04-15T06:11:06;100111.69;;;21.84
70123;BMP280;57489;37.404;24.920;2023-04-15T06:16:07;100117.47;;;21.86
70123;BMP280;57489;37.404;24.920;2023-04-15T06:21:07;100112.66;;;21.91
70123;BMP280;57489;37.404;24.920;2023-04-15T06:26:08;100121.03;;;22.02
70123;BMP280;57489;37.404;24.920;2023-04-15T06:31:08;100130.59;;;22.15
70123;BMP280;57489;37.404;24.920;2023-04-15T06:36:09;100120.56;;;22.24
70123;BMP280;57489;37.404;24.920;2023-04-15T06:41:09;100123.56;;;22.23
70123;BMP280;57489;37.404;24.920;2023-04-15T06:46:09;100125.84;;;22.21
70123;BMP280;57489;37.404;24.920;2023-04-15T06:51:10;100121.25;;;22.21
70123;BMP280;57489;37.404;24.920;2023-04-15T06:56:10;100107.22;;;22.24
70123;BMP280;57489;37.404;24.920;2023-04-15T07:01:12;100103.53;;;22.29
70123;BMP280;57489;37.404;24.920;2023-04-15T07:06:12;100113.66;;;22.36
70123;BMP280;57489;37.404;24.920;2023-04-15T07:11:13;100112.47;;;22.49
70123;BMP280;57489;37.404;24.920;2023-04-15T07:16:13;100108.91;;;22.57
70123;BMP280;57489;37.404;24.920;2023-04-15T07:21:14;100105.31;;;22.93
70123;BMP280;57489;37.404;24.920;2023-04-15T07:26:14;100114.19;;;23.25
70123;BMP280;57489;37.404;24.920;2023-04-15T07:31:15;100118.16;;;23.31
70123;BMP280;57489;37.404;24.920;2023-04-15T07:36:15;100122.59;;;23.39
70123;BMP280;57489;37.404;24.920;2023-04-15T07:41:16;100123.28;;;23.52
70123;BMP280;57489;37.404;24.920;2023-04-15T07:46:16;100130.19;;;23.69
70123;BMP280;57489;37.404;24.920;2023-04-15T07:51:17;100134.31;;;23.82
70123;BMP280;57489;37.404;24.920;2023-04-15T07:56:17;100143.47;;;23.81
70123;BMP280;57489;37.404;24.920;2023-04-15T08:01:18;100139.06;;;23.73
70123;BMP280;57489;37.404;24.920;2023-04-15T08:06:18;100137.38;;;23.81
70123;BMP280;57489;37.404;24.920;2023-04-15T08:11:19;100146.78;;;23.90
70123;BMP280;57489;37.404;24.920;2023-04-15T08:16:22;100161.09;;;23.98
70123;BMP280;57489;37.404;24.920;2023-04-15T08:21:23;100151.03;;;24.11
70123;BMP280;57489;37.404;24.920;2023-04-15T08:26:23;100157.69;;;24.17
70123;BMP280;57489;37.404;24.920;2023-04-15T08:31:26;100154.31;;;24.20
70123;BMP280;57489;37.404;24.920;2023-04-15T08:36:28;100156.19;;;24.35
70123;BMP280;57489;37.404;24.920;2023-04-15T08:41:39;100154.22;;;24.51
70123;BMP280;57489;37.404;24.920;2023-04-15T08:46:40;100157.03;;;24.59
70123;BMP280;57489;37.404;24.920;2023-04-15T08:51:41;100156.06;;;24.67
70123;BMP280;57489;37.404;24.920;2023-04-15T08:56:42;100162.81;;;24.80
70123;BMP280;57489;37.404;24.920;2023-04-15T09:01:42;100151.09;;;24.88
70123;BMP280;57489;37.404;24.920;2023-04-15T09:06:43;100161.69;;;24.81
70123;BMP280;57489;37.404;24.920;2023-04-15T09:11:43;100153.69;;;24.65
70123;BMP280;57489;37.404;24.920;2023-04-15T09:17:02;100143.91;;;24.54
70123;BMP280;57489;37.404;24.920;2023-04-15T09:22:03;100147.94;;;24.44
70123;BMP280;57489;37.404;24.920;2023-04-15T09:27:03;100152.19;;;24.29
70123;BMP280;57489;37.404;24.920;2023-04-15T09:32:12;100147.13;;;24.43
70123;BMP280;57489;37.404;24.920;2023-04-15T09:37:12;100135.41;;;24.71
70123;BMP280;57489;37.404;24.920;2023-04-15T09:42:13;100119.44;;;24.78
70123;BMP280;57489;37.404;24.920;2023-04-15T09:47:27;100146.00;;;24.83
70123;BMP280;57489;37.404;24.920;2023-04-15T09:52:28;100122.00;;;24.90
70123;BMP280;57489;37.404;24.920;2023-04-15T09:57:34;100132.38;;;24.92
70123;BMP280;57489;37.404;24.920;2023-04-15T10:02:34;100124.19;;;24.85
70123;BMP280;57489;37.404;24.920;2023-04-15T10:07:35;100120.00;;;24.68
70123;BMP280;57489;37.404;24.920;2023-04-15T10:12:37;100119.63;;;24.46
70123;BMP280;57489;37.404;24.920;2023-04-15T10:17:42;100098.44;;;24.41
70123;BMP280;57489;37.404;24.920;2023-04-15T10:22:44;100098.56;;;24.48
70123;BMP280;57489;37.404;24.920;2023-04-15T10:27:45;100099.09;;;24.35
70123;BMP280;57489;37.404;24.920;2023-04-15T10:32:47;100098.69;;;24.36
70123;BMP280;57489;37.404;24.920;2023-04-15T10:37:48;100096.97;;;24.63
70123;BMP280;57489;37.404;24.920;2023-04-15T10:42:49;100098.34;;;24.57
70123;BMP280;57489;37.404;24.920;2023-04-15T10:48:00;100109.16;;;24.61
70123;BMP280;57489;37.404;24.920;2023-04-15T10:53:03;100095.28;;;24.78
70123;BMP280;57489;37.404;24.920;2023-04-15T10:58:04;100098.34;;;24.99
70123;BMP280;57489;37.404;24.920;2023-04-15T11:03:09;100090.72;;;25.01
70123;BMP280;57489;37.404;24.920;2023-04-15T11:08:10;100098.59;;;25.14
70123;BMP280;57489;37.404;24.920;2023-04-15T11:18:18;100091.22;;;25.30
70123;BMP280;57489;37.404;24.920;2023-04-15T11:23:36;100087.13;;;25.40
70123;BMP280;57489;37.404;24.920;2023-04-15T11:28:42;100080.66;;;25.44
70123;BMP280;57489;37.404;24.920;2023-04-15T11:34:01;100077.28;;;25.24
70123;BMP280;57489;37.404;24.920;2023-04-15T11:39:03;100069.69;;;25.26
70123;BMP280;57489;37.404;24.920;2023-04-15T11:44:15;100077.66;;;25.23
70123;BMP280;57489;37.404;24.920;2023-04-15T11:49:28;100087.97;;;25.21
70123;BMP280;57489;37.404;24.920;2023-04-15T11:54:29;100073.84;;;25.24
70123;BMP280;57489;37.404;24.920;2023-04-15T11:59:41;100075.09;;;25.30
70123;BMP280;57489;37.404;24.920;2023-04-15T12:04:42;100054.41;;;25.34
70123;BMP280;57489;37.404;24.920;2023-04-15T12:09:42;100064.44;;;25.37
70123;BMP280;57489;37.404;24.920;2023-04-15T12:14:42;100063.63;;;25.33
70123;BMP280;57489;37.404;24.920;2023-04-15T12:19:43;100070.84;;;25.29
70123;BMP280;57489;37.404;24.920;2023-04-15T12:24:43;100053.16;;;25.28
70123;BMP280;57489;37.404;24.920;2023-04-15T12:29:44;100059.25;;;25.25
70123;BMP280;57489;37.404;24.920;2023-04-15T12:34:52;100047.19;;;25.12
70123;BMP280;57489;37.404;24.920;2023-04-15T12:39:52;100049.03;;;25.07
70123;BMP280;57489;37.404;24.920;2023-04-15T12:44:53;100040.56;;;25.05
70123;BMP280;57489;37.404;24.920;2023-04-15T12:49:53;100043.94;;;25.02
70123;BMP280;57489;37.404;24.920;2023-04-15T12:54:54;100042.38;;;25.01
70123;BMP280;57489;37.404;24.920;2023-04-15T12:59:54;100028.16;;;24.97
70123;BMP280;57489;37.404;24.920;2023-04-15T13:04:55;100030.63;;;24.87
70123;BMP280;57489;37.404;24.920;2023-04-15T13:09:55;100034.81;;;24.84
70123;BMP280;57489;37.404;24.920;2023-04-15T13:14:55;100028.19;;;24.78
70123;BMP280;57489;37.404;24.920;2023-04-15T13:19:56;100021.69;;;24.79
70123;BMP280;57489;37.404;24.920;2023-04-15T13:24:56;100026.81;;;24.65
70123;BMP280;57489;37.404;24.920;2023-04-15T13:29:57;100024.84;;;24.62
70123;BMP280;57489;37.404;24.920;2023-04-15T13:34:57;100027.13;;;24.60
70123;BMP280;57489;37.404;24.920;2023-04-15T13:39:58;100022.41;;;24.53
70123;BMP280;57489;37.404;24.920;2023-04-15T13:44:58;100018.09;;;24.48
70123;BMP280;57489;37.404;24.920;2023-04-15T13:49:58;100015.00;;;24.46
70123;BMP280;57489;37.404;24.920;2023-04-15T13:54:59;100020.66;;;24.41
70123;BMP280;57489;37.404;24.920;2023-04-15T14:00:00;100014.44;;;24.37
70123;BMP280;57489;37.404;24.920;2023-04-15T14:05:01;100011.69;;;24.34
70123;BMP280;57489;37.404;24.920;2023-04-15T14:10:02;100003.59;;;24.30
70123;BMP280;57489;37.404;24.920;2023-04-15T14:15:03;99997.72;;;24.24
70123;BMP280;57489;37.404;24.920;2023-04-15T14:20:06;100003.44;;;24.23
70123;BMP280;57489;37.404;24.920;2023-04-15T14:25:07;100008.66;;;24.16
70123;BMP280;57489;37.404;24.920;2023-04-15T14:30:07;100001.34;;;24.13
70123;BMP280;57489;37.404;24.920;2023-04-15T14:35:08;100002.44;;;24.12
70123;BMP280;57489;37.404;24.920;2023-04-15T14:40:09;99996.94;;;24.05
70123;BMP280;57489;37.404;24.920;2023-04-15T14:45:09;100010.72;;;24.03
70123;BMP280;57489;37.404;24.920;2023-04-15T14:50:11;99999.75;;;23.92
70123;BMP280;57489;37.404;24.920;2023-04-15T14:55:12;100002.03;;;23.90
70123;BMP280;57489;37.404;24.920;2023-04-15T15:00:13;100005.41;;;23.87
70123;BMP280;57489;37.404;24.920;2023-04-15T15:05:13;100000.75;;;23.84
70123;BMP280;57489;37.404;24.920;2023-04-15T15:10:14;99997.22;;;23.80
70123;BMP280;57489;37.404;24.920;2023-04-15T15:15:14;99996.09;;;23.81
70123;BMP280;57489;37.404;24.920;2023-04-15T15:20:16;100002.38;;;23.70
70123;BMP280;57489;37.404;24.920;2023-04-15T15:25:16;99998.47;;;23.67
70123;BMP280;57489;37.404;24.920;2023-04-15T15:30:17;99990.88;;;23.69
70123;BMP280;57489;37.404;24.920;2023-04-15T15:35:17;99986.03;;;23.59
70123;BMP280;57489;37.404;24.920;2023-04-15T15:40:18;99998.16;;;23.53
70123;BMP280;57489;37.404;24.920;2023-04-15T15:45:18;99994.19;;;23.47
70123;BMP280;57489;37.404;24.920;2023-04-15T15:50:19;99987.69;;;23.48
70123;BMP280;57489;37.404;24.920;2023-04-15T15:55:20;99995.00;;;23.47
70123;BMP280;57489;37.404;24.920;2023-04-15T16:00:20;99990.22;;;23.40
70123;BMP280;57489;37.404;24.920;2023-04-15T16:05:21;99988.69;;;23.39
70123;BMP280;57489;37.404;24.920;2023-04-15T16:10:21;99984.19;;;23.44
70123;BMP280;57489;37.404;24.920;2023-04-15T16:15:23;99994.84;;;23.40
70123;BMP280;57489;37.404;24.920;2023-04-15T16:20:24;99984.38;;;23.35
70123;BMP280;57489;37.404;24.920;2023-04-15T16:25:25;99987.84;;;23.35
70123;BMP280;57489;37.404;24.920;2023-04-15T16:30:25;99979.28;;;23.30
70123;BMP280;57489;37.404;24.920;2023-04-15T16:35:25;99978.31;;;23.22
70123;BMP280;57489;37.404;24.920;2023-04-15T16:40:26;99984.38;;;23.19
70123;BMP280;57489;37.404;24.920;2023-04-15T16:45:26;99996.88;;;23.15
70123;BMP280;57489;37.404;24.920;2023-04-15T16:50:27;100001.47;;;23.14
70123;BMP280;57489;37.404;24.920;2023-04-15T16:55:28;99993.44;;;22.99
70123;BMP280;57489;37.404;24.920;2023-04-15T17:00:28;99992.78;;;23.02
70123;BMP280;57489;37.404;24.920;2023-04-15T17:05:29;99981.13;;;22.94
70123;BMP280;57489;37.404;24.920;2023-04-15T17:10:30;99992.16;;;22.93
70123;BMP280;57489;37.404;24.920;2023-04-15T17:15:30;99994.66;;;22.85
70123;BMP280;57489;37.404;24.920;2023-04-15T17:20:31;100011.13;;;22.88
70123;BMP280;57489;37.404;24.920;2023-04-15T17:25:31;100011.72;;;22.81
70123;BMP280;57489;37.404;24.920;2023-04-15T17:30:32;100015.88;;;22.78
70123;BMP280;57489;37.404;24.920;2023-04-15T17:35:32;100018.78;;;22.73
70123;BMP280;57489;37.404;24.920;2023-04-15T17:40:33;100024.78;;;22.82
70123;BMP280;57489;37.404;24.920;2023-04-15T17:45:33;100028.13;;;22.95
70123;BMP280;57489;37.404;24.920;2023-04-15T17:50:34;100033.69;;;23.02
70123;BMP280;57489;37.404;24.920;2023-04-15T17:55:34;100029.28;;;23.10
70123;BMP280;57489;37.404;24.920;2023-04-15T18:00:35;100031.19;;;22.94
70123;BMP280;57489;37.404;24.920;2023-04-15T18:05:36;100031.53;;;23.08
70123;BMP280;57489;37.404;24.920;2023-04-15T18:10:37;100040.66;;;23.07
70123;BMP280;57489;37.404;24.920;2023-04-15T18:15:38;100054.81;;;23.07
70123;BMP280;57489;37.404;24.920;2023-04-15T18:20:38;100049.41;;;23.20
70123;BMP280;57489;37.404;24.920;2023-04-15T18:25:39;100045.94;;;23.19
70123;BMP280;57489;37.404;24.920;2023-04-15T18:30:40;100050.19;;;23.20
70123;BMP280;57489;37.404;24.920;2023-04-15T18:35:40;100053.28;;;23.22
70123;BMP280;57489;37.404;24.920;2023-04-15T18:40:41;100055.94;;;23.06
70123;BMP280;57489;37.404;24.920;2023-04-15T18:45:42;100059.50;;;22.95
70123;BMP280;57489;37.404;24.920;2023-04-15T18:50:42;100061.28;;;22.91
70123;BMP280;57489;37.404;24.920;2023-04-15T18:55:43;100063.56;;;23.04
70123;BMP280;57489;37.404;24.920;2023-04-15T19:00:43;100071.00;;;23.11
70123;BMP280;57489;37.404;24.920;2023-04-15T19:05:43;100076.41;;;22.99
70123;BMP280;57489;37.404;24.920;2023-04-15T19:10:44;100064.84;;;22.95
70123;BMP280;57489;37.404;24.920;2023-04-15T19:15:44;100071.50;;;23.01
70123;BMP280;57489;37.404;24.920;2023-04-15T19:20:45;100063.66;;;23.08
70123;BMP280;57489;37.404;24.920;2023-04-15T19:25:45;100054.31;;;23.02
70123;BMP280;57489;37.404;24.920;2023-04-15T19:30:46;100065.38;;;23.16
70123;BMP280;57489;37.404;24.920;2023-04-15T19:35:46;100064.94;;;23.14
70123;BMP280;57489;37.404;24.920;2023-04-15T19:40:47;100053.09;;;23.15
70123;BMP280;57489;37.404;24.920;2023-04-15T19:45:47;100044.28;;;22.99
70123;BMP280;57489;37.404;24.920;2023-04-15T19:50:48;100037.13;;;22.87
70123;BMP280;57489;37.404;24.920;2023-04-15T19:55:48;100041.53;;;22.79
70123;BMP280;57489;37.404;24.920;2023-04-15T20:00:49;100042.91;;;22.89
70123;BMP280;57489;37.404;24.920;2023-04-15T20:05:49;100035.66;;;22.90
70123;BMP280;57489;37.404;24.920;2023-04-15T20:10:50;100038.56;;;22.84
70123;BMP280;57489;37.404;24.920;2023-04-15T20:15:50;100045.66;;;22.93
70123;BMP280;57489;37.404;24.920;2023-04-15T20:20:50;100037.38;;;22.98
70123;BMP280;57489;37.404;24.920;2023-04-15T20:25:51;100041.88;;;22.94
70123;BMP280;57489;37.404;24.920;2023-04-15T20:30:51;100029.59;;;22.93
70123;BMP280;57489;37.404;24.920;2023-04-15T20:35:53;100024.72;;;22.95
70123;BMP280;57489;37.404;24.920;2023-04-15T20:40:53;100026.50;;;22.91
70123;BMP280;57489;37.404;24.920;2023-04-15T20:45:54;100020.19;;;22.83
70123;BMP280;57489;37.404;24.920;2023-04-15T20:50:55;100021.25;;;22.94
70123;BMP280;57489;37.404;24.920;2023-04-15T20:55:55;100024.25;;;22.93
70123;BMP280;57489;37.404;24.920;2023-04-15T21:00:55;100024.59;;;23.07
70123;BMP280;57489;37.404;24.920;2023-04-15T21:05:56;100015.44;;;22.76
70123;BMP280;57489;37.404;24.920;2023-04-15T21:10:56;100014.28;;;22.62
70123;BMP280;57489;37.404;24.920;2023-04-15T21:15:57;100004.38;;;22.62
70123;BMP280;57489;37.404;24.920;2023-04-15T21:20:58;100001.53;;;22.55
70123;BMP280;57489;37.404;24.920;2023-04-15T21:25:59;99994.59;;;22.54
70123;BMP280;57489;37.404;24.920;2023-04-15T21:30:59;100011.84;;;22.41
70123;BMP280;57489;37.404;24.920;2023-04-15T21:36:00;100009.47;;;22.39
70123;BMP280;57489;37.404;24.920;2023-04-15T21:41:00;99999.91;;;22.38
70123;BMP280;57489;37.404;24.920;2023-04-15T21:46:01;99996.47;;;22.38
70123;BMP280;57489;37.404;24.920;2023-04-15T21:51:01;99991.53;;;22.40
70123;BMP280;57489;37.404;24.920;2023-04-15T21:56:02;99990.38;;;22.53
70123;BMP280;57489;37.404;24.920;2023-04-15T22:01:03;99986.72;;;22.45
70123;BMP280;57489;37.404;24.920;2023-04-15T22:06:04;99976.56;;;22.51
70123;BMP280;57489;37.404;24.920;2023-04-15T22:11:04;99983.47;;;22.52
70123;BMP280;57489;37.404;24.920;2023-04-15T22:16:05;99988.81;;;22.52
70123;BMP280;57489;37.404;24.920;2023-04-15T22:21:05;99989.63;;;22.52
70123;BMP280;57489;37.404;24.920;2023-04-15T22:26:06;99980.53;;;22.57
70123;BMP280;57489;37.404;24.920;2023-04-15T22:31:06;99978.34;;;22.47
70123;BMP280;57489;37.404;24.920;2023-04-15T22:36:07;99976.19;;;22.37
70123;BMP280;57489;37.404;24.920;2023-04-15T22:41:08;99970.38;;;22.35
70123;BMP280;57489;37.404;24.920;2023-04-15T22:46:08;99969.09;;;22.28
70123;BMP280;57489;37.404;24.920;2023-04-15T22:51:09;99972.88;;;22.27
70123;BMP280;57489;37.404;24.920;2023-04-15T22:56:09;99970.00;;;22.20
70123;BMP280;57489;37.404;24.920;2023-04-15T23:01:10;99958.09;;;22.18
70123;BMP280;57489;37.404;24.920;2023-04-15T23:06:10;99967.94;;;22.14
70123;BMP280;57489;37.404;24.920;2023-04-15T23:11:11;99958.69;;;22.11
70123;BMP280;57489;37.404;24.920;2023-04-15T23:16:11;99972.06;;;22.11
70123;BMP280;57489;37.404;24.920;2023-04-15T23:21:12;99963.34;;;22.14
70123;BMP280;57489;37.404;24.920;2023-04-15T23:26:12;99962.03;;;22.08
70123;BMP280;57489;37.404;24.920;2023-04-15T23:31:13;99958.94;;;22.06
70123;BMP280;57489;37.404;24.920;2023-04-15T23:36:13;99962.25;;;22.03
70123;BMP280;57489;37.404;24.920;2023-04-15T23:41:14;99968.28;;;22.00
70123;BMP280;57489;37.404;24.920;2023-04-15T23:46:14;99957.91;;;21.98
70123;BMP280;57489;37.404;24.920;2023-04-15T23:51:15;99953.63;;;21.94
70123;BMP280;57489;37.404;24.920;2023-04-15T23:56:15;99953.19;;;21.92
